Time;durP1;ratioP1;P1;durP2;ratioP2;P2;SDS_P1;SDS_P2;PMS_P1;PMS_P2;Temp;Humidity;BMP_temperature;BMP_pressure;BME280_temperature;BME280_humidity;BME280_pressure;Samples;Min_cycle;Max_cycle;Signal;HPM_P1;HPM_P2
2022/06/20 00:03:25;;;;;;;2.83;1.15;;;22.50;62.00;;;;;;10412401;28;20414;-60
2022/06/20 00:08:26;;;;;;;3.15;1.15;;;22.50;62.00;;;;;;10412391;28;20030;-60
2022/06/20 00:13:32;;;;;;;3.08;1.40;;;22.50;61.90;;;;;;10398641;28;20061;-60
2022/06/20 00:18:32;;;;;;;2.55;1.63;;;22.50;61.90;;;;;;10412234;28;20068;-59
2022/06/20 00:23:33;;;;;;;3.90;1.35;;;22.50;61.90;;;;;;10411990;28;20049;-60
2022/06/20 00:28:34;;;;;;;2.33;1.08;;;22.50;61.70;;;;;;10413073;28;20101;-59
2022/06/20 00:33:35;;;;;;;2.55;1.15;;;22.50;61.60;;;;;;10411656;28;20124;-60
2022/06/20 00:38:36;;;;;;;3.25;1.20;;;22.50;61.50;;;;;;10411579;28;20051;-60
2022/06/20 00:43:42;;;;;;;1.98;1.10;;;22.40;61.50;;;;;;10411344;28;20482;-59
2022/06/20 00:48:52;;;;;;;2.47;1.17;;;22.50;61.50;;;;;;10420855;28;20040;-60
2022/06/20 00:54:13;;;;;;;2.85;0.90;;;22.40;61.40;;;;;;10419781;28;20091;-59
2022/06/20 00:59:23;;;;;;;3.05;1.08;;;22.40;61.40;;;;;;10419601;28;20037;-59
2022/06/20 01:04:51;;;;;;;3.45;1.27;;;22.50;61.40;;;;;;10414552;28;20037;-59
2022/06/20 01:09:57;;;;;;;2.35;1.10;;;22.40;61.40;;;;;;10434804;28;20032;-59
2022/06/20 01:14:58;;;;;;;2.65;1.55;;;22.40;61.30;;;;;;10400045;28;20087;-59
2022/06/20 01:20:08;;;;;;;1.67;0.70;;;22.40;61.40;;;;;;10420096;28;20064;-59
2022/06/20 01:25:47;;;;;;;3.88;1.52;;;22.40;61.30;;;;;;10418227;28;20063;-59
2022/06/20 01:30:49;;;;;;;2.35;0.95;;;22.40;61.40;;;;;;10398245;28;20045;-59
2022/06/20 01:46:34;;;;;;;2.65;1.00;;;22.30;61.30;;;;;;10417713;28;20414;-60
2022/06/20 01:51:48;;;;;;;2.03;0.93;;;22.30;61.30;;;;;;10429206;28;20032;-60
2022/06/20 01:56:51;;;;;;;2.15;0.70;;;22.30;61.40;;;;;;10417275;28;20116;-59
2022/06/20 02:01:53;;;;;;;1.20;0.90;;;22.30;61.40;;;;;;10416796;28;20033;-59
2022/06/20 02:06:54;;;;;;;2.78;0.90;;;22.30;61.40;;;;;;10417813;28;20470;-60
2022/06/20 02:11:55;;;;;;;1.85;0.85;;;22.30;61.40;;;;;;10404297;28;20034;-59
2022/06/20 02:17:03;;;;;;;1.77;0.90;;;22.30;61.40;;;;;;10419867;28;20068;-59
2022/06/20 02:22:07;;;;;;;3.40;0.98;;;22.20;61.40;;;;;;10416496;28;20033;-59
2022/06/20 02:27:24;;;;;;;3.53;0.90;;;22.20;61.30;;;;;;10415855;28;20517;-59
2022/06/20 02:32:30;;;;;;;1.50;0.73;;;22.20;61.20;;;;;;10416009;28;20025;-60
2022/06/20 02:37:30;;;;;;;2.65;0.85;;;22.30;61.20;;;;;;10415386;28;20099;-59
2022/06/20 02:42:49;;;;;;;2.50;0.88;;;22.20;61.20;;;;;;10415458;28;20053;-59
2022/06/20 02:47:57;;;;;;;1.57;0.73;;;22.20;61.20;;;;;;10415782;28;20034;-59
2022/06/20 02:53:14;;;;;;;2.90;1.38;;;22.20;61.30;;;;;;10425290;28;20026;-59
2022/06/20 02:58:25;;;;;;;2.53;0.70;;;22.20;61.30;;;;;;10416221;28;20030;-59
2022/06/20 03:03:40;;;;;;;2.95;1.10;;;22.20;61.40;;;;;;10414533;28;20033;-59
2022/06/20 03:08:41;;;;;;;1.58;0.70;;;22.20;61.40;;;;;;10412717;28;20083;-60
2022/06/20 03:13:42;;;;;;;2.28;0.85;;;22.10;61.20;;;;;;10387185;28;20395;-59
2022/06/20 03:18:49;;;;;;;2.08;1.08;;;22.10;61.30;;;;;;10411530;28;20112;-59
2022/06/20 03:23:50;;;;;;;1.75;0.68;;;22.20;61.40;;;;;;10413420;28;20116;-60
2022/06/20 03:28:53;;;;;;;3.00;0.90;;;22.10;61.20;;;;;;10410670;28;20025;-59
2022/06/20 03:33:54;;;;;;;3.53;0.70;;;22.10;61.20;;;;;;10410671;28;20054;-59
2022/06/20 03:38:56;;;;;;;1.25;0.80;;;22.10;61.20;;;;;;10413654;28;20374;-59
2022/06/20 03:44:14;;;;;;;1.55;0.80;;;22.10;61.20;;;;;;10412939;28;20078;-59
2022/06/20 03:49:35;;;;;;;1.60;0.80;;;22.10;61.20;;;;;;10424929;28;20603;-59
2022/06/20 03:55:00;;;;;;;1.45;0.90;;;22.10;61.30;;;;;;10412280;28;20040;-59
2022/06/20 04:00:14;;;;;;;1.48;0.70;;;22.10;61.30;;;;;;10412901;28;20060;-59
2022/06/20 04:05:49;;;;;;;1.15;0.80;;;22.10;61.40;;;;;;10412087;28;20056;-59
2022/06/20 04:11:01;;;;;;;1.63;0.93;;;22.10;61.30;;;;;;10399832;28;20132;-60
2022/06/20 04:16:35;;;;;;;2.97;1.08;;;22.10;61.40;;;;;;10412156;28;20063;-59
2022/06/20 04:21:58;;;;;;;2.70;1.13;;;22.00;61.30;;;;;;10412178;28;20032;-60
2022/06/20 04:27:07;;;;;;;2.25;0.70;;;22.00;61.30;;;;;;10411724;28;20478;-59
2022/06/20 04:32:39;;;;;;;1.95;1.42;;;22.00;61.30;;;;;;10412928;28;20029;-59
2022/06/20 04:38:19;;;;;;;1.17;0.95;;;22.00;61.30;;;;;;10394537;28;20085;-60
2022/06/20 04:43:47;;;;;;;1.05;0.60;;;22.10;61.50;;;;;;10410841;28;20505;-59
2022/06/20 04:48:49;;;;;;;1.40;0.68;;;22.00;61.40;;;;;;10418838;28;20124;-60
2022/06/20 04:53:51;;;;;;;3.70;1.17;;;22.10;61.50;;;;;;10413612;28;20032;-59
2022/06/20 04:59:01;;;;;;;4.03;1.13;;;22.00;62.00;;;;;;10412458;28;20044;-58
2022/06/20 05:04:11;;;;;;;7.90;1.45;;;22.00;62.20;;;;;;10412491;28;20374;-59
2022/06/20 05:09:34;;;;;;;5.82;1.30;;;22.10;62.40;;;;;;10410765;28;20037;-58
2022/06/20 05:15:12;;;;;;;9.55;1.65;;;22.10;63.00;;;;;;10398881;28;20095;-58
2022/06/20 05:20:32;;;;;;;11.00;1.70;;;22.20;63.00;;;;;;10427387;28;20037;-57
2022/06/20 05:25:36;;;;;;;8.05;1.80;;;22.20;63.70;;;;;;10410044;28;20036;-58
2022/06/20 05:30:37;;;;;;;10.00;1.80;;;22.10;63.50;;;;;;10411348;28;20037;-59
2022/06/20 05:36:21;;;;;;;8.18;2.40;;;22.20;63.70;;;;;;10409176;28;20042;-58
2022/06/20 05:41:22;;;;;;;10.02;1.80;;;22.20;63.80;;;;;;10370333;28;20079;-60
2022/06/20 05:46:53;;;;;;;15.30;1.98;;;22.10;63.80;;;;;;10417560;28;20033;-60
2022/06/20 05:51:56;;;;;;;11.55;2.33;;;22.20;63.80;;;;;;10427341;28;20021;-60
2022/06/20 05:57:07;;;;;;;12.13;2.00;;;22.20;63.50;;;;;;10416635;28;20063;-58
2022/06/20 06:02:27;;;;;;;14.35;2.25;;;22.10;63.60;;;;;;10416250;28;20499;-59
2022/06/20 06:07:36;;;;;;;11.38;3.20;;;22.10;63.40;;;;;;10417318;28;20111;-58
2022/06/20 06:12:46;;;;;;;20.00;3.22;;;22.10;63.30;;;;;;10414338;28;20021;-58
2022/06/20 06:17:56;;;;;;;7.45;2.80;;;22.10;64.20;;;;;;10405205;28;20484;-59
2022/06/20 06:23:05;;;;;;;8.63;3.05;;;22.10;63.50;;;;;;10416009;28;20087;-58
2022/06/20 06:28:13;;;;;;;21.67;3.38;;;22.10;63.30;;;;;;10398362;28;20021;-58
2022/06/20 06:33:31;;;;;;;9.13;2.53;;;22.00;63.00;;;;;;10413143;28;20026;-58
2022/06/20 06:38:48;;;;;;;8.88;2.83;;;22.00;62.90;;;;;;10413497;28;20470;-58
2022/06/20 06:43:51;;;;;;;8.63;2.15;;;22.00;62.90;;;;;;10410253;28;20136;-58
2022/06/20 06:49:20;;;;;;;6.55;2.35;;;22.00;62.90;;;;;;10422310;28;20040;-58
2022/06/20 06:54:46;;;;;;;5.72;2.20;;;22.00;63.00;;;;;;10405277;28;20021;-58
2022/06/20 07:00:44;;;;;;;8.93;1.98;;;22.00;62.70;;;;;;10412581;28;20030;-58
2022/06/20 07:06:01;;;;;;;5.15;2.15;;;22.00;62.80;;;;;;10406133;28;20450;-58
2022/06/20 07:11:23;;;;;;;6.85;2.70;;;22.00;62.70;;;;;;10411840;28;20041;-58
2022/06/20 07:16:45;;;;;;;6.60;2.78;;;22.00;62.70;;;;;;10412790;28;20036;-58
2022/06/20 07:21:47;;;;;;;3.33;1.98;;;22.00;62.80;;;;;;10380640;28;20060;-58
2022/06/20 07:26:51;;;;;;;9.43;2.55;;;22.00;63.00;;;;;;10415463;28;20352;-58
2022/06/20 07:32:11;;;;;;;5.68;2.50;;;22.00;63.10;;;;;;10412728;28;20080;-58
2022/06/20 07:37:31;;;;;;;5.88;2.50;;;22.00;63.10;;;;;;10411715;28;20163;-58
2022/06/20 07:42:45;;;;;;;7.50;3.03;;;22.00;62.60;;;;;;10410921;28;20033;-58
2022/06/20 07:47:56;;;;;;;5.18;3.00;;;22.00;62.60;;;;;;10410682;28;20619;-58
2022/06/20 07:53:39;;;;;;;5.57;2.92;;;22.00;62.50;;;;;;10420172;28;20068;-59
2022/06/20 07:58:52;;;;;;;6.40;2.72;;;22.10;62.30;;;;;;10412276;28;20419;-58
2022/06/20 08:04:06;;;;;;;7.00;2.92;;;22.00;62.40;;;;;;10412199;28;20029;-59
2022/06/20 08:09:38;;;;;;;3.78;2.53;;;22.10;62.40;;;;;;10408423;28;20065;-59
2022/06/20 08:14:46;;;;;;;5.72;2.63;;;22.10;62.30;;;;;;10409676;28;20036;-59
2022/06/20 08:19:48;;;;;;;5.03;2.15;;;22.10;62.30;;;;;;10397064;28;20474;-57
2022/06/20 08:25:06;;;;;;;3.67;2.05;;;22.10;62.10;;;;;;10411087;28;20497;-58
2022/06/20 08:30:36;;;;;;;4.63;2.30;;;22.10;62.10;;;;;;10411474;28;20030;-58
2022/06/20 08:35:51;;;;;;;5.65;2.60;;;22.10;62.20;;;;;;10411185;28;20049;-58
2022/06/20 08:41:19;;;;;;;5.15;2.65;;;22.10;61.90;;;;;;10408596;28;20525;-57
2022/06/20 08:47:01;;;;;;;7.05;3.03;;;22.10;61.60;;;;;;10409091;28;20055;-57
2022/06/20 08:52:51;;;;;;;5.57;2.60;;;22.10;61.90;;;;;;10414456;28;20436;-58
2022/06/20 08:58:31;;;;;;;6.03;3.10;;;22.00;61.30;;;;;;10411952;28;20402;-57
2022/06/20 09:04:33;;;;;;;6.72;3.17;;;22.10;61.40;;;;;;10411662;28;20036;-58
2022/06/20 09:10:04;;;;;;;4.30;2.53;;;22.10;61.50;;;;;;10399140;28;20103;-58
2022/06/20 09:15:28;;;;;;;5.57;3.20;;;22.10;61.60;;;;;;10418582;28;20037;-58
2022/06/20 09:20:50;;;;;;;3.83;2.67;;;22.10;61.60;;;;;;10419625;28;20424;-58
2022/06/20 09:26:22;;;;;;;4.35;3.03;;;22.10;61.60;;;;;;10418778;28;20112;-57
2022/06/20 09:31:55;;;;;;;5.78;2.58;;;22.10;61.50;;;;;;10418046;28;20038;-57
2022/06/20 09:37:42;;;;;;;4.68;3.17;;;22.10;61.70;;;;;;10417401;28;20504;-58
2022/06/20 09:43:18;;;;;;;8.73;2.72;;;22.10;62.00;;;;;;10417963;28;20500;-58
2022/06/20 09:48:23;;;;;;;5.38;3.08;;;22.10;61.50;;;;;;10421576;28;20047;-57
2022/06/20 09:54:02;;;;;;;5.82;3.13;;;22.20;61.80;;;;;;10418557;28;20054;-58
2022/06/20 09:59:40;;;;;;;5.80;2.63;;;22.20;61.20;;;;;;10431332;28;20505;-57
2022/06/20 10:04:47;;;;;;;4.78;3.08;;;22.20;60.30;;;;;;10415169;28;20040;-57
2022/06/20 10:09:54;;;;;;;6.00;3.33;;;22.20;60.90;;;;;;10415367;28;20021;-57
2022/06/20 10:15:06;;;;;;;5.40;3.08;;;22.10;59.40;;;;;;10412914;28;20480;-57
2022/06/20 10:20:37;;;;;;;8.85;2.97;;;22.20;57.70;;;;;;10402225;28;20041;-58
2022/06/20 10:25:50;;;;;;;4.22;2.20;;;22.20;56.50;;;;;;10414746;28;20073;-57
2022/06/20 10:31:10;;;;;;;4.43;2.97;;;22.10;55.50;;;;;;10413107;28;20128;-57
2022/06/20 10:36:21;;;;;;;4.43;2.05;;;22.20;54.30;;;;;;10408337;28;20065;-58
2022/06/20 10:41:37;;;;;;;5.43;2.40;;;22.10;53.40;;;;;;10414889;28;20037;-57
2022/06/20 10:46:55;;;;;;;4.57;2.10;;;22.10;53.20;;;;;;10414492;28;20087;-57
2022/06/20 10:52:13;;;;;;;3.83;2.22;;;22.10;52.50;;;;;;10421273;28;20022;-58
2022/06/20 10:57:42;;;;;;;3.95;1.75;;;22.10;51.90;;;;;;10414590;28;20057;-59
2022/06/20 11:03:29;;;;;;;3.03;1.95;;;22.10;51.40;;;;;;10414291;28;20029;-58
2022/06/20 11:09:05;;;;;;;6.18;2.20;;;22.10;50.00;;;;;;10406213;28;20045;-58
2022/06/20 11:14:33;;;;;;;3.40;2.00;;;22.10;50.90;;;;;;10407683;28;20045;-58
2022/06/20 11:19:57;;;;;;;8.48;2.42;;;22.10;50.60;;;;;;10413288;28;20033;-58
2022/06/20 11:25:41;;;;;;;5.90;2.40;;;22.10;50.60;;;;;;10412787;28;20025;-58
2022/06/20 11:30:56;;;;;;;4.45;2.03;;;22.10;50.30;;;;;;10414175;28;20045;-59
2022/06/20 11:36:07;;;;;;;6.10;2.25;;;22.10;50.70;;;;;;10412278;28;20049;-59
2022/06/20 11:41:15;;;;;;;6.35;2.13;;;22.10;51.50;;;;;;10412666;28;20038;-59
2022/06/20 11:46:40;;;;;;;4.50;2.10;;;22.10;50.40;;;;;;10412772;28;20124;-58
2022/06/20 11:52:03;;;;;;;5.82;2.00;;;22.10;56.30;;;;;;10420967;28;20502;-58
2022/06/20 11:57:41;;;;;;;10.68;2.50;;;22.10;56.60;;;;;;10411413;28;20035;-58
2022/06/20 12:03:06;;;;;;;4.35;2.35;;;22.10;56.90;;;;;;10404525;28;20038;-58
2022/06/20 12:08:40;;;;;;;5.97;2.15;;;22.10;56.90;;;;;;10411147;28;20161;-58
2022/06/20 12:14:21;;;;;;;3.53;2.05;;;22.20;52.80;;;;;;10413074;28;20031;-58
2022/06/20 12:25:43;;;;;;;3.03;1.65;;;22.20;53.80;;;;;;10412098;28;20046;-59
2022/06/20 12:30:59;;;;;;;6.00;2.53;;;22.20;54.30;;;;;;10411114;28;20045;-58
2022/06/20 12:36:11;;;;;;;4.47;2.10;;;22.20;54.80;;;;;;10411059;28;20033;-58
2022/06/20 12:41:18;;;;;;;7.75;2.15;;;22.20;55.10;;;;;;10408721;28;20168;-58
2022/06/20 12:46:47;;;;;;;18.45;4.53;;;22.20;55.40;;;;;;10412274;28;20137;-58
2022/06/20 12:52:16;;;;;;;26.08;3.47;;;22.20;56.00;;;;;;10424781;28;20042;-57
2022/06/20 12:57:42;;;;;;;;;;;22.20;55.70;;;;;;10420806;28;20163;-58
2022/06/20 13:03:11;;;;;;;4.72;2.50;;;22.20;54.50;;;;;;10419935;28;19913;-58
2022/06/20 13:08:37;;;;;;;6.03;2.75;;;22.20;53.60;;;;;;10434873;28;20116;-59
2022/06/20 13:14:05;;;;;;;6.05;2.60;;;22.10;52.70;;;;;;10420275;28;20030;-58
2022/06/20 13:19:41;;;;;;;7.38;2.63;;;22.10;52.80;;;;;;10419157;28;20037;-58
2022/06/20 13:25:03;;;;;;;7.18;3.17;;;22.10;52.50;;;;;;10418906;28;20506;-59
2022/06/20 13:30:16;;;;;;;5.90;2.58;;;22.20;52.20;;;;;;10418947;28;20414;-58
2022/06/20 13:35:48;;;;;;;5.45;2.30;;;22.20;51.90;;;;;;10417514;28;20133;-58
2022/06/20 13:41:16;;;;;;;5.70;1.90;;;22.10;51.70;;;;;;10418668;28;20394;-59
2022/06/20 13:46:59;;;;;;;5.93;2.50;;;22.10;51.80;;;;;;10418788;28;20029;-58
2022/06/20 13:52:22;;;;;;;4.90;2.20;;;22.10;51.10;;;;;;10424801;28;20038;-58
2022/06/20 13:57:44;;;;;;;4.00;2.38;;;22.20;51.20;;;;;;10415692;28;20521;-58
2022/06/20 14:03:10;;;;;;;7.38;2.67;;;22.20;51.60;;;;;;10402884;28;20037;-58
2022/06/20 14:08:21;;;;;;;4.78;2.33;;;22.20;51.90;;;;;;10416471;28;20029;-58
2022/06/20 14:13:26;;;;;;;3.88;2.65;;;22.20;52.00;;;;;;10416056;28;20119;-59
2022/06/20 14:18:29;;;;;;;8.52;3.00;;;22.10;51.90;;;;;;10415853;28;20036;-59
2022/06/20 14:23:33;;;;;;;6.95;2.80;;;22.10;52.00;;;;;;10417588;28;20037;-59
2022/06/20 14:28:47;;;;;;;6.85;3.28;;;22.10;52.00;;;;;;10414884;28;20033;-59
2022/06/20 14:34:01;;;;;;;7.28;3.00;;;22.10;52.10;;;;;;10414906;28;20025;-58
2022/06/20 14:39:21;;;;;;;10.30;3.05;;;22.10;52.40;;;;;;10414841;28;20083;-58
2022/06/20 14:44:29;;;;;;;5.70;1.80;;;22.10;52.70;;;;;;10416215;28;20036;-58
2022/06/20 14:50:12;;;;;;;7.10;2.33;;;22.10;53.00;;;;;;10422798;28;20037;-58
2022/06/20 14:55:45;;;;;;;6.88;2.40;;;22.10;53.50;;;;;;10414457;28;20091;-59
2022/06/20 15:00:58;;;;;;;4.80;2.80;;;22.10;53.80;;;;;;10415882;28;20090;-58
2022/06/20 15:06:34;;;;;;;5.60;2.40;;;22.10;54.00;;;;;;10414415;28;20045;-59
2022/06/20 15:11:45;;;;;;;3.85;2.47;;;22.00;54.30;;;;;;10410512;28;20060;-58
2022/06/20 15:17:10;;;;;;;3.50;2.58;;;22.10;54.40;;;;;;10398143;28;20032;-58
2022/06/20 15:22:36;;;;;;;5.68;3.00;;;22.10;54.50;;;;;;10413915;28;20036;-59
2022/06/20 15:28:00;;;;;;;4.53;3.17;;;22.10;54.70;;;;;;10413128;28;20474;-58
2022/06/20 15:33:02;;;;;;;3.92;2.63;;;22.10;55.60;;;;;;10413216;28;20038;-58
2022/06/20 15:38:05;;;;;;;6.53;3.03;;;22.10;55.00;;;;;;10412601;28;20068;-58
2022/06/20 15:43:56;;;;;;;6.53;2.20;;;22.10;55.00;;;;;;10412732;28;20107;-58
2022/06/20 15:49:05;;;;;;;2.90;2.00;;;22.10;55.10;;;;;;10369979;28;20037;-58
2022/06/20 15:54:46;;;;;;;6.07;2.03;;;22.10;55.20;;;;;;10412655;28;20063;-59
2022/06/20 16:00:12;;;;;;;3.55;1.77;;;22.10;55.30;;;;;;10412009;28;20445;-58
2022/06/20 16:05:33;;;;;;;5.53;2.72;;;22.10;55.30;;;;;;10402143;28;20080;-59
2022/06/20 16:10:57;;;;;;;6.95;3.17;;;22.10;55.80;;;;;;10409709;28;20036;-59
2022/06/20 16:16:17;;;;;;;34.30;16.52;;;22.10;57.30;;;;;;10409191;28;20099;-58
2022/06/20 16:21:31;;;;;;;10.00;4.95;;;22.20;58.70;;;;;;10411354;28;20122;-59
2022/06/20 16:26:46;;;;;;;8.55;3.50;;;22.20;57.90;;;;;;10412969;28;20036;-58
2022/06/20 16:32:03;;;;;;;9.60;3.97;;;22.30;57.40;;;;;;10411690;28;20041;-60
2022/06/20 16:37:23;;;;;;;6.30;3.42;;;22.30;56.30;;;;;;10411360;28;20051;-59
2022/06/20 16:42:47;;;;;;;5.72;3.00;;;22.20;55.70;;;;;;10402683;28;20030;-59
2022/06/20 16:48:07;;;;;;;7.70;3.75;;;22.20;54.50;;;;;;10410605;28;20057;-62
2022/06/20 16:53:54;;;;;;;7.00;3.50;;;22.20;54.20;;;;;;10411614;28;20033;-60
2022/06/20 16:59:11;;;;;;;5.18;3.40;;;22.20;54.30;;;;;;10300104;28;20043;-59
2022/06/20 17:04:33;;;;;;;18.45;4.30;;;22.10;54.30;;;;;;10385332;28;20072;-58
2022/06/20 17:09:44;;;;;;;20.85;3.30;;;22.20;54.00;;;;;;10411109;28;20083;-58
2022/06/20 17:14:57;;;;;;;13.63;3.42;;;22.20;53.10;;;;;;10410756;28;20036;-59
2022/06/20 17:20:21;;;;;;;9.63;3.17;;;22.10;52.60;;;;;;10396059;28;20030;-58
2022/06/20 17:26:05;;;;;;;9.77;2.95;;;22.10;52.50;;;;;;10409881;28;20030;-59
2022/06/20 17:31:44;;;;;;;16.60;3.90;;;22.10;52.10;;;;;;10402984;28;20045;-59
2022/06/20 17:37:34;;;;;;;10.57;3.00;;;22.10;52.80;;;;;;10414847;28;20053;-60
2022/06/20 17:43:21;;;;;;;6.80;2.47;;;22.10;51.90;;;;;;10417690;28;20033;-59
2022/06/20 17:48:31;;;;;;;13.07;3.13;;;22.00;51.60;;;;;;10414706;28;20048;-60
2022/06/20 17:54:04;;;;;;;4.97;2.22;;;22.00;51.30;;;;;;10402339;28;20113;-59
2022/06/20 17:59:32;;;;;;;4.47;1.80;;;22.10;50.90;;;;;;10406726;28;20038;-59
2022/06/20 18:04:40;;;;;;;7.05;1.90;;;22.10;50.80;;;;;;10390603;28;20038;-61
2022/06/20 18:10:06;;;;;;;2.78;1.95;;;22.10;50.70;;;;;;10385211;28;20033;-59
2022/06/20 18:15:17;;;;;;;5.55;1.95;;;22.10;51.00;;;;;;10391433;28;20100;-58
2022/06/20 18:20:41;;;;;;;11.65;2.25;;;22.10;51.20;;;;;;10399566;28;20041;-59
2022/06/20 18:26:15;;;;;;;4.40;1.92;;;22.10;50.70;;;;;;10410073;28;20156;-60
2022/06/20 18:31:23;;;;;;;5.07;2.10;;;22.10;50.90;;;;;;10390880;28;20033;-59
2022/06/20 18:36:27;;;;;;;4.20;1.73;;;22.10;50.50;;;;;;10383932;28;20113;-60
2022/06/20 18:41:28;;;;;;;4.50;1.90;;;22.10;50.40;;;;;;10381849;28;20018;-60
2022/06/20 18:46:31;;;;;;;4.75;1.95;;;22.10;50.40;;;;;;10388537;28;20030;-59
2022/06/20 18:51:55;;;;;;;5.00;1.75;;;22.00;50.20;;;;;;10417135;28;20053;-59
2022/06/20 18:57:23;;;;;;;3.17;2.10;;;22.00;50.10;;;;;;10414973;28;20035;-59
2022/06/20 19:03:31;;;;;;;8.65;2.15;;;22.10;50.20;;;;;;10408287;28;20034;-60
2022/06/20 19:09:11;;;;;;;2.95;1.65;;;22.10;50.20;;;;;;10396369;28;20046;-59
2022/06/20 19:14:30;;;;;;;3.40;1.90;;;22.00;50.60;;;;;;10414343;28;20021;-59
2022/06/20 19:20:17;;;;;;;5.47;1.98;;;22.00;50.60;;;;;;10415693;28;20025;-59
2022/06/20 19:25:23;;;;;;;3.38;1.70;;;22.00;51.50;;;;;;10415169;28;20122;-59
2022/06/20 19:30:39;;;;;;;4.07;2.22;;;22.00;51.40;;;;;;10406016;28;20379;-59
2022/06/20 19:35:50;;;;;;;3.83;1.90;;;22.00;51.60;;;;;;10413342;28;20410;-59
2022/06/20 19:41:01;;;;;;;2.75;1.73;;;22.00;51.70;;;;;;10413628;28;20037;-59
2022/06/20 19:46:09;;;;;;;3.80;2.35;;;22.00;51.60;;;;;;10412455;28;20078;-58
2022/06/20 19:51:26;;;;;;;6.30;2.47;;;22.00;52.00;;;;;;10420000;28;20521;-59
2022/06/20 19:57:14;;;;;;;5.28;1.83;;;22.00;52.50;;;;;;10413658;28;20082;-58
2022/06/20 20:02:18;;;;;;;9.05;2.50;;;22.00;53.00;;;;;;10407018;28;20025;-59
2022/06/20 20:07:40;;;;;;;3.67;2.08;;;22.00;52.30;;;;;;10411239;28;20033;-59
2022/06/20 20:12:41;;;;;;;2.70;1.85;;;22.00;52.40;;;;;;10410754;28;20748;-59
2022/06/20 20:18:29;;;;;;;5.90;2.22;;;22.00;52.40;;;;;;10410423;28;20037;-60
2022/06/20 20:23:53;;;;;;;3.55;1.67;;;22.00;52.20;;;;;;10405357;28;20091;-59
2022/06/20 20:29:40;;;;;;;2.70;1.50;;;21.90;52.40;;;;;;10411435;28;20048;-58
2022/06/20 20:35:29;;;;;;;3.45;1.63;;;21.90;52.60;;;;;;10412784;28;20436;-59
2022/06/20 20:41:06;;;;;;;4.00;2.30;;;21.90;52.70;;;;;;10390254;28;20052;-59
2022/06/20 20:46:57;;;;;;;3.92;2.08;;;21.90;52.90;;;;;;10412421;28;20048;-58
2022/06/20 20:52:04;;;;;;;3.72;1.90;;;21.90;53.10;;;;;;10418654;28;20037;-59
2022/06/20 20:57:21;;;;;;;9.07;1.70;;;21.90;53.30;;;;;;10411251;28;20041;-59
2022/06/20 21:02:29;;;;;;;4.28;1.52;;;21.90;53.40;;;;;;10397234;28;20032;-58
2022/06/20 21:07:36;;;;;;;2.97;2.03;;;21.90;53.50;;;;;;10411965;28;20033;-59
2022/06/20 21:12:57;;;;;;;4.78;2.03;;;21.90;53.60;;;;;;10418367;28;20036;-60
2022/06/20 21:18:03;;;;;;;2.40;1.60;;;21.90;53.70;;;;;;10418042;28;20044;-59
2022/06/20 21:23:05;;;;;;;2.90;1.75;;;21.90;53.80;;;;;;10420036;28;20435;-59
2022/06/20 21:28:06;;;;;;;3.88;1.70;;;21.90;53.90;;;;;;10418405;28;20121;-59
2022/06/20 21:33:10;;;;;;;2.60;1.73;;;21.90;54.00;;;;;;10417781;28;20071;-59
2022/06/20 21:38:18;;;;;;;3.40;1.85;;;21.90;54.10;;;;;;10419171;28;20057;-59
2022/06/20 21:43:21;;;;;;;2.53;1.60;;;21.90;54.20;;;;;;10417838;28;20108;-59
2022/06/20 21:48:29;;;;;;;5.60;2.38;;;21.80;54.20;;;;;;10422313;28;20036;-58
2022/06/20 21:53:39;;;;;;;3.67;2.50;;;21.90;54.70;;;;;;10419850;28;20026;-59
2022/06/20 21:59:11;;;;;;;3.15;1.65;;;21.90;54.20;;;;;;10417403;28;20041;-59
2022/06/20 22:04:37;;;;;;;4.28;1.90;;;21.80;54.30;;;;;;10379774;28;20573;-59
2022/06/20 22:09:54;;;;;;;5.43;2.47;;;21.80;54.30;;;;;;10415948;28;20034;-59
2022/06/20 22:15:14;;;;;;;3.58;1.73;;;21.80;54.50;;;;;;10415837;28;20025;-59
2022/06/20 22:20:34;;;;;;;2.55;1.70;;;21.80;54.50;;;;;;10416345;28;20090;-59
2022/06/20 22:25:47;;;;;;;4.65;1.58;;;21.80;54.50;;;;;;10416083;28;20390;-59
2022/06/20 22:30:49;;;;;;;3.95;1.80;;;21.80;54.60;;;;;;10417349;28;20029;-59
2022/06/20 22:35:53;;;;;;;2.65;1.77;;;21.80;54.70;;;;;;10415534;28;20493;-58
2022/06/20 22:40:58;;;;;;;3.58;2.10;;;21.80;54.70;;;;;;10415254;28;20033;-59
2022/06/20 22:46:03;;;;;;;3.20;2.17;;;21.80;54.60;;;;;;10415473;28;20044;-59
2022/06/20 22:51:09;;;;;;;2.92;1.95;;;21.80;54.70;;;;;;10405323;28;20037;-59
2022/06/20 22:56:15;;;;;;;3.40;1.95;;;21.80;54.70;;;;;;10415483;28;20459;-59
2022/06/20 23:01:31;;;;;;;2.63;1.70;;;21.80;54.80;;;;;;10404608;28;20395;-59
2022/06/20 23:06:33;;;;;;;2.92;1.80;;;21.80;54.80;;;;;;10403001;28;20033;-59
2022/06/20 23:11:34;;;;;;;3.50;2.00;;;21.80;54.90;;;;;;10398013;28;20038;-59
2022/06/20 23:21:53;;;;;;;2.35;1.52;;;21.70;55.00;;;;;;10416032;28;20120;-58
2022/06/20 23:26:54;;;;;;;2.35;1.63;;;21.70;55.00;;;;;;10415285;28;20124;-58
2022/06/20 23:31:57;;;;;;;4.13;2.08;;;21.70;55.00;;;;;;10412920;28;20033;-59
2022/06/20 23:37:00;;;;;;;2.78;1.70;;;21.70;54.90;;;;;;10412884;28;20452;-59
2022/06/20 23:42:02;;;;;;;3.25;2.05;;;21.70;54.80;;;;;;10414307;28;20033;-59
2022/06/20 23:47:03;;;;;;;2.40;2.20;;;21.70;54.80;;;;;;10412637;28;20045;-59
2022/06/20 23:52:06;;;;;;;2.88;2.00;;;21.70;54.90;;;;;;10420455;28;20030;-59
2022/06/20 23:57:14;;;;;;;2.30;1.70;;;21.70;55.00;;;;;;10417229;28;20072;-59
